Time;durP1;ratioP1;P1;durP2;ratioP2;P2;SDS_P1;SDS_P2;PMS_P1;PMS_P2;Temp;Humidity;BMP_temperature;BMP_pressure;BME280_temperature;BME280_humidity;BME280_pressure;Samples;Min_cycle;Max_cycle;Signal;HPM_P1;HPM_P2
2022/07/20 00:02:04;;;;;;;;;57.00;44.50;;;;;;;;5015291;28;47593;-70
2022/07/20 00:04:29;;;;;;;;;57.50;43.25;;;;;;;;5017160;28;45216;-71
2022/07/20 00:06:55;;;;;;;;;57.25;42.50;;;;;;;;5015757;28;45270;-70
2022/07/20 00:12:04;;;;;;;;;29.50;18.75;;;;;;;;5016902;28;45485;-71
2022/07/20 00:14:30;;;;;;;;;51.25;41.25;;;;;;;;4998763;28;45992;-71
2022/07/20 00:16:55;;;;;;;;;40.75;31.75;;;;;;;;5017252;28;45357;-71
2022/07/20 00:19:21;;;;;;;;;48.25;39.00;;;;;;;;5017358;28;45878;-70
2022/07/20 00:21:46;;;;;;;;;46.50;36.00;;;;;;;;5016909;28;45495;-71
2022/07/20 00:24:11;;;;;;;;;47.00;38.00;;;;;;;;5016752;28;45251;-70
2022/07/20 00:26:37;;;;;;;;;44.25;36.75;;;;;;;;5017125;28;45468;-70
2022/07/20 00:29:02;;;;;;;;;42.50;35.50;;;;;;;;5017130;28;45325;-70
2022/07/20 00:31:27;;;;;;;;;42.50;34.25;;;;;;;;5016762;28;46563;-70
2022/07/20 00:33:53;;;;;;;;;46.00;36.50;;;;;;;;5016858;28;45330;-70
2022/07/20 00:36:18;;;;;;;;;43.25;35.50;;;;;;;;5016722;28;45253;-70
2022/07/20 00:38:44;;;;;;;;;36.25;32.75;;;;;;;;5017021;28;45333;-71
2022/07/20 00:41:09;;;;;;;;;38.00;33.50;;;;;;;;5016848;28;45333;-71
2022/07/20 00:43:53;;;;;;;;;47.75;37.50;;;;;;;;5016332;28;45382;-71
2022/07/20 00:46:18;;;;;;;;;42.50;35.25;;;;;;;;5016508;28;45326;-70
2022/07/20 00:48:43;;;;;;;;;36.75;32.75;;;;;;;;5016826;28;45291;-71
2022/07/20 00:51:09;;;;;;;;;46.25;36.25;;;;;;;;5016541;28;45360;-70
2022/07/20 00:53:34;;;;;;;;;43.50;35.25;;;;;;;;5016667;28;45437;-71
2022/07/20 00:55:59;;;;;;;;;44.50;36.25;;;;;;;;5016648;28;45318;-70
2022/07/20 00:58:25;;;;;;;;;42.25;34.00;;;;;;;;5016866;28;45441;-70
2022/07/20 01:00:50;;;;;;;;;39.00;34.50;;;;;;;;5015372;28;45534;-69
2022/07/20 01:03:15;;;;;;;;;39.50;34.00;;;;;;;;5016516;28;45505;-70
2022/07/20 01:05:40;;;;;;;;;45.25;35.25;;;;;;;;5016105;28;45465;-70
2022/07/20 01:08:06;;;;;;;;;36.25;32.25;;;;;;;;5017875;28;45199;-70
2022/07/20 01:10:31;;;;;;;;;44.25;36.00;;;;;;;;5018405;28;46031;-70
2022/07/20 01:12:57;;;;;;;;;43.25;36.25;;;;;;;;5019060;28;45304;-71
2022/07/20 01:15:22;;;;;;;;;43.00;34.00;;;;;;;;5026341;28;45753;-70
2022/07/20 01:17:47;;;;;;;;;37.75;32.25;;;;;;;;5019385;28;45466;-70
2022/07/20 01:20:17;;;;;;;;;43.50;36.50;;;;;;;;5019046;28;46397;-71
2022/07/20 01:22:46;;;;;;;;;40.00;32.00;;;;;;;;5018988;28;45360;-71
2022/07/20 01:25:11;;;;;;;;;39.00;34.25;;;;;;;;5018540;28;45432;-72
2022/07/20 01:27:36;;;;;;;;;31.25;27.25;;;;;;;;5019381;28;45304;-73
2022/07/20 01:30:03;;;;;;;;;38.00;30.33;;;;;;;;5018838;28;45948;-71
2022/07/20 01:32:28;;;;;;;;;37.75;32.50;;;;;;;;5018762;28;45392;-72
2022/07/20 01:34:53;;;;;;;;;37.00;32.50;;;;;;;;5018617;28;45433;-72
2022/07/20 01:37:18;;;;;;;;;41.25;35.25;;;;;;;;5019158;28;45409;-71
2022/07/20 01:39:44;;;;;;;;;39.00;31.33;;;;;;;;5019504;28;45533;-71
2022/07/20 01:42:09;;;;;;;;;32.75;29.50;;;;;;;;5018920;28;45444;-71
2022/07/20 01:44:34;;;;;;;;;40.00;33.25;;;;;;;;5019693;28;45356;-71
2022/07/20 01:46:59;;;;;;;;;36.75;31.25;;;;;;;;5019555;28;45493;-70
2022/07/20 01:49:27;;;;;;;;;41.75;32.00;;;;;;;;5018951;28;46451;-70
2022/07/20 01:51:52;;;;;;;;;38.00;31.00;;;;;;;;5019148;28;45535;-70
2022/07/20 01:54:18;;;;;;;;;37.00;33.00;;;;;;;;5019272;28;45451;-71
2022/07/20 01:56:43;;;;;;;;;33.25;32.00;;;;;;;;5018288;28;45405;-70
2022/07/20 01:59:08;;;;;;;;;36.33;31.67;;;;;;;;5018358;28;45440;-70
2022/07/20 02:01:34;;;;;;;;;38.25;32.25;;;;;;;;5018916;28;45316;-69
2022/07/20 02:03:59;;;;;;;;;38.50;33.50;;;;;;;;5019461;28;45420;-70
2022/07/20 02:06:24;;;;;;;;;33.33;30.00;;;;;;;;5018944;28;45441;-70
2022/07/20 02:08:49;;;;;;;;;35.00;31.75;;;;;;;;5018771;28;45335;-70
2022/07/20 02:11:15;;;;;;;;;33.33;30.33;;;;;;;;5018920;28;45413;-70
2022/07/20 02:13:40;;;;;;;;;38.50;33.25;;;;;;;;5019000;28;45379;-70
2022/07/20 02:16:15;;;;;;;;;33.50;30.25;;;;;;;;5019378;28;45294;-70
2022/07/20 02:18:50;;;;;;;;;37.25;31.75;;;;;;;;5018572;28;45377;-69
2022/07/20 02:21:16;;;;;;;;;37.75;31.50;;;;;;;;5018430;28;45752;-70
2022/07/20 02:23:42;;;;;;;;;42.25;34.50;;;;;;;;5034073;28;45299;-70
2022/07/20 02:26:07;;;;;;;;;38.33;31.67;;;;;;;;5018782;28;45268;-70
2022/07/20 02:28:33;;;;;;;;;38.67;32.33;;;;;;;;5018517;28;45588;-70
2022/07/20 02:30:58;;;;;;;;;35.00;32.33;;;;;;;;5018601;28;45433;-70
2022/07/20 02:33:23;;;;;;;;;36.25;31.25;;;;;;;;5000885;28;45248;-70
2022/07/20 02:35:48;;;;;;;;;37.33;33.00;;;;;;;;5018662;28;45429;-70
2022/07/20 02:38:14;;;;;;;;;38.33;31.33;;;;;;;;5018312;28;46318;-70
2022/07/20 02:40:39;;;;;;;;;35.00;32.25;;;;;;;;5018658;28;45407;-70
2022/07/20 02:43:05;;;;;;;;;40.50;33.25;;;;;;;;5018827;28;45361;-70
2022/07/20 02:45:30;;;;;;;;;34.67;30.33;;;;;;;;5018637;28;45473;-69
2022/07/20 02:48:02;;;;;;;;;37.00;32.33;;;;;;;;5018107;28;45860;-70
2022/07/20 02:50:27;;;;;;;;;36.25;32.25;;;;;;;;5018028;28;45479;-70
2022/07/20 02:52:52;;;;;;;;;29.00;24.33;;;;;;;;5018388;28;45362;-70
2022/07/20 02:55:18;;;;;;;;;31.00;30.00;;;;;;;;5018338;28;45291;-70
2022/07/20 02:57:43;;;;;;;;;36.33;33.33;;;;;;;;5018210;28;45448;-70
2022/07/20 03:00:10;;;;;;;;;33.33;30.33;;;;;;;;5017339;28;45302;-70
2022/07/20 03:02:35;;;;;;;;;34.00;30.67;;;;;;;;5018085;28;45336;-70
2022/07/20 03:05:00;;;;;;;;;33.00;30.33;;;;;;;;5017877;28;45267;-70
2022/07/20 03:07:25;;;;;;;;;46.67;33.67;;;;;;;;5017876;28;45577;-69
2022/07/20 03:09:51;;;;;;;;;35.00;31.67;;;;;;;;5018195;28;45405;-70
2022/07/20 03:12:16;;;;;;;;;39.67;33.00;;;;;;;;5018229;28;45184;-70
2022/07/20 03:14:41;;;;;;;;;37.33;32.67;;;;;;;;5017909;28;45404;-69
2022/07/20 03:17:06;;;;;;;;;32.67;31.00;;;;;;;;5017498;28;46670;-70
2022/07/20 03:19:31;;;;;;;;;32.33;31.33;;;;;;;;5018041;28;45333;-70
2022/07/20 03:21:57;;;;;;;;;41.33;31.67;;;;;;;;5017785;28;45313;-70
2022/07/20 03:24:22;;;;;;;;;40.00;33.00;;;;;;;;5018067;28;45374;-70
2022/07/20 03:26:47;;;;;;;;;35.67;32.00;;;;;;;;5017710;28;46496;-70
2022/07/20 03:29:12;;;;;;;;;38.00;32.67;;;;;;;;5017806;28;45574;-70
2022/07/20 03:31:37;;;;;;;;;35.00;31.33;;;;;;;;5017498;28;45282;-70
2022/07/20 03:34:03;;;;;;;;;35.00;31.33;;;;;;;;5017694;28;45368;-70
2022/07/20 03:36:28;;;;;;;;;37.33;30.67;;;;;;;;5017679;28;45349;-70
2022/07/20 03:38:54;;;;;;;;;34.67;31.00;;;;;;;;5017540;28;45426;-70
2022/07/20 03:41:19;;;;;;;;;32.67;30.00;;;;;;;;5017803;28;45338;-70
2022/07/20 03:43:44;;;;;;;;;39.00;31.33;;;;;;;;5017476;28;45387;-70
2022/07/20 03:46:10;;;;;;;;;39.50;32.50;;;;;;;;5017389;28;45353;-70
2022/07/20 03:48:36;;;;;;;;;33.33;30.33;;;;;;;;5017694;28;45275;-71
2022/07/20 03:51:02;;;;;;;;;39.00;35.00;;;;;;;;5017260;28;45255;-70
2022/07/20 03:53:27;;;;;;;;;35.33;31.00;;;;;;;;5017482;28;45215;-70
2022/07/20 03:55:52;;;;;;;;;39.33;33.00;;;;;;;;5017292;28;46568;-70
2022/07/20 03:58:17;;;;;;;;;36.33;32.67;;;;;;;;5017340;28;45482;-71
2022/07/20 04:00:43;;;;;;;;;38.00;32.33;;;;;;;;5032655;28;45326;-70
2022/07/20 04:03:08;;;;;;;;;36.67;30.67;;;;;;;;5016927;28;45328;-70
2022/07/20 04:05:33;;;;;;;;;35.00;31.67;;;;;;;;5017334;28;45314;-72
2022/07/20 04:07:58;;;;;;;;;34.00;31.00;;;;;;;;5017141;28;45365;-70
2022/07/20 04:10:23;;;;;;;;;35.33;30.67;;;;;;;;5017308;28;45294;-70
2022/07/20 04:12:49;;;;;;;;;24.00;24.00;;;;;;;;5017337;28;46013;-70
2022/07/20 04:15:14;;;;;;;;;37.33;31.00;;;;;;;;5017012;28;46217;-70
2022/07/20 04:17:41;;;;;;;;;33.67;31.67;;;;;;;;5017097;28;45352;-70
2022/07/20 04:20:06;;;;;;;;;31.33;30.67;;;;;;;;5016907;28;45293;-70
2022/07/20 04:22:31;;;;;;;;;28.33;27.67;;;;;;;;5017141;28;45497;-69
2022/07/20 04:24:57;;;;;;;;;31.33;29.00;;;;;;;;5017297;28;46561;-69
2022/07/20 04:27:22;;;;;;;;;35.33;27.67;;;;;;;;5016930;28;45404;-69
2022/07/20 04:29:47;;;;;;;;;29.33;26.00;;;;;;;;4998999;28;45336;-70
2022/07/20 04:32:12;;;;;;;;;37.33;29.00;;;;;;;;5017076;28;45405;-69
2022/07/20 04:34:38;;;;;;;;;32.00;28.33;;;;;;;;5016716;28;46622;-69
2022/07/20 04:37:03;;;;;;;;;30.00;30.00;;;;;;;;5016967;28;45393;-70
2022/07/20 04:39:28;;;;;;;;;40.00;30.33;;;;;;;;5016759;28;45242;-70
2022/07/20 04:41:53;;;;;;;;;37.00;25.67;;;;;;;;5016965;28;45440;-70
2022/07/20 04:44:19;;;;;;;;;32.00;19.67;;;;;;;;5019453;28;46466;-70
2022/07/20 04:46:44;;;;;;;;;25.00;25.00;;;;;;;;5020305;28;45306;-69
2022/07/20 04:49:09;;;;;;;;;29.33;23.00;;;;;;;;5020167;28;45498;-69
2022/07/20 04:51:35;;;;;;;;;24.33;21.33;;;;;;;;5020355;28;45504;-70
2022/07/20 04:54:00;;;;;;;;;19.00;18.67;;;;;;;;5020298;28;45426;-70
2022/07/20 04:56:26;;;;;;;;;32.00;27.33;;;;;;;;5020096;28;45294;-70
2022/07/20 04:58:53;;;;;;;;;22.33;19.33;;;;;;;;5019952;28;45472;-70
2022/07/20 05:01:19;;;;;;;;;24.67;22.33;;;;;;;;5020299;28;45219;-70
2022/07/20 05:03:44;;;;;;;;;23.67;23.67;;;;;;;;5019676;28;45220;-71
2022/07/20 05:06:09;;;;;;;;;21.33;19.67;;;;;;;;5019179;28;45406;-70
2022/07/20 05:08:34;;;;;;;;;27.33;24.67;;;;;;;;5019873;28;45214;-71
2022/07/20 05:11:00;;;;;;;;;31.67;25.33;;;;;;;;5013400;28;45497;-71
2022/07/20 05:13:25;;;;;;;;;25.67;23.67;;;;;;;;5039785;28;46382;-71
2022/07/20 05:15:50;;;;;;;;;30.00;25.33;;;;;;;;5039885;28;45255;-71
2022/07/20 05:18:15;;;;;;;;;28.67;25.00;;;;;;;;5019950;28;45250;-70
2022/07/20 05:20:40;;;;;;;;;26.33;25.00;;;;;;;;5020168;28;45234;-70
2022/07/20 05:23:06;;;;;;;;;26.00;22.50;;;;;;;;5019768;28;46441;-70
2022/07/20 05:25:31;;;;;;;;;32.67;23.67;;;;;;;;5019736;28;45255;-69
2022/07/20 05:27:56;;;;;;;;;28.00;25.00;;;;;;;;5019432;28;45389;-70
2022/07/20 05:30:22;;;;;;;;;28.67;28.33;;;;;;;;5019515;28;45451;-71
2022/07/20 05:32:47;;;;;;;;;35.00;29.67;;;;;;;;5019197;28;45310;-70
2022/07/20 05:35:12;;;;;;;;;25.00;24.00;;;;;;;;5019754;28;45357;-69
2022/07/20 05:37:37;;;;;;;;;28.33;26.67;;;;;;;;5019163;28;45416;-70
2022/07/20 05:40:03;;;;;;;;;29.67;25.67;;;;;;;;5019662;28;45490;-70
2022/07/20 05:42:28;;;;;;;;;27.00;22.67;;;;;;;;5019623;28;46287;-71
2022/07/20 05:44:53;;;;;;;;;28.67;23.67;;;;;;;;5019381;28;46025;-71
2022/07/20 05:47:18;;;;;;;;;28.67;26.33;;;;;;;;5019108;28;45317;-70
2022/07/20 05:49:47;;;;;;;;;27.33;24.67;;;;;;;;5019718;28;45487;-70
2022/07/20 05:52:12;;;;;;;;;27.33;26.00;;;;;;;;5018910;28;45437;-70
2022/07/20 05:54:37;;;;;;;;;28.00;22.67;;;;;;;;5018931;28;45315;-71
2022/07/20 05:57:03;;;;;;;;;29.00;25.00;;;;;;;;5019156;28;45284;-70
2022/07/20 05:59:28;;;;;;;;;29.00;26.00;;;;;;;;5019541;28;45353;-70
2022/07/20 06:01:53;;;;;;;;;29.67;26.00;;;;;;;;5018349;28;45694;-70
2022/07/20 06:04:18;;;;;;;;;24.67;20.67;;;;;;;;5018899;28;45211;-69
2022/07/20 06:06:44;;;;;;;;;28.33;25.67;;;;;;;;5019297;28;45386;-70
2022/07/20 06:09:09;;;;;;;;;30.00;27.00;;;;;;;;5019144;28;45166;-70
2022/07/20 06:11:34;;;;;;;;;26.33;25.33;;;;;;;;5018961;28;46451;-69
2022/07/20 06:14:00;;;;;;;;;27.00;25.33;;;;;;;;5018608;28;45365;-70
2022/07/20 06:16:26;;;;;;;;;25.67;24.33;;;;;;;;5018929;28;45358;-70
2022/07/20 06:18:51;;;;;;;;;28.67;27.00;;;;;;;;5019377;28;45341;-71
2022/07/20 06:21:16;;;;;;;;;29.67;27.67;;;;;;;;5018413;28;47430;-71
2022/07/20 06:23:42;;;;;;;;;33.00;28.33;;;;;;;;5018874;28;45220;-72
2022/07/20 06:26:07;;;;;;;;;28.67;23.00;;;;;;;;5018795;28;45318;-73
2022/07/20 06:28:32;;;;;;;;;27.33;25.33;;;;;;;;5019053;28;45302;-73
2022/07/20 06:30:58;;;;;;;;;30.67;27.33;;;;;;;;5018123;28;45541;-72
2022/07/20 06:33:23;;;;;;;;;27.33;24.33;;;;;;;;5018419;28;45534;-70
2022/07/20 06:35:48;;;;;;;;;26.67;21.67;;;;;;;;5018731;28;45361;-71
2022/07/20 06:38:13;;;;;;;;;28.00;25.67;;;;;;;;5018569;28;45299;-70
2022/07/20 06:40:39;;;;;;;;;23.67;22.67;;;;;;;;5018421;28;45652;-71
2022/07/20 06:43:04;;;;;;;;;27.00;23.00;;;;;;;;5018204;28;45393;-70
2022/07/20 06:45:29;;;;;;;;;28.33;24.33;;;;;;;;5018619;28;45334;-70
2022/07/20 06:47:54;;;;;;;;;35.33;30.33;;;;;;;;5018830;28;45382;-70
2022/07/20 06:50:20;;;;;;;;;27.67;27.33;;;;;;;;5018284;28;45342;-70
2022/07/20 06:52:45;;;;;;;;;32.67;27.00;;;;;;;;5017078;28;45462;-71
2022/07/20 06:55:10;;;;;;;;;27.33;26.33;;;;;;;;5018335;28;45301;-70
2022/07/20 06:57:35;;;;;;;;;26.00;22.00;;;;;;;;5018518;28;45461;-71
2022/07/20 07:00:01;;;;;;;;;28.00;25.33;;;;;;;;5017902;28;46219;-72
2022/07/20 07:02:26;;;;;;;;;28.67;23.67;;;;;;;;5017517;28;45314;-70
2022/07/20 07:04:51;;;;;;;;;28.00;24.33;;;;;;;;5018230;28;45314;-71
2022/07/20 07:07:17;;;;;;;;;23.67;22.33;;;;;;;;4999274;28;45461;-71
2022/07/20 07:09:42;;;;;;;;;24.00;23.00;;;;;;;;5017427;28;45567;-71
2022/07/20 07:12:08;;;;;;;;;21.67;20.00;;;;;;;;5017927;28;45275;-71
2022/07/20 07:14:33;;;;;;;;;28.33;23.00;;;;;;;;5017933;28;45303;-71
2022/07/20 07:16:58;;;;;;;;;23.33;21.00;;;;;;;;5018431;28;45196;-71
2022/07/20 07:19:23;;;;;;;;;25.67;24.00;;;;;;;;5017498;28;46324;-72
2022/07/20 07:21:48;;;;;;;;;22.33;22.33;;;;;;;;5017935;28;45168;-73
2022/07/20 07:24:14;;;;;;;;;24.00;22.33;;;;;;;;5017979;28;45395;-73
2022/07/20 07:26:39;;;;;;;;;35.33;30.33;;;;;;;;5018025;28;45394;-73
2022/07/20 07:29:04;;;;;;;;;24.33;21.33;;;;;;;;5017117;28;46909;-71
2022/07/20 07:31:30;;;;;;;;;21.67;20.67;;;;;;;;5017451;28;45255;-72
2022/07/20 07:33:55;;;;;;;;;21.00;19.33;;;;;;;;5017757;28;45342;-73
2022/07/20 07:36:22;;;;;;;;;21.67;21.00;;;;;;;;5018026;28;45310;-75
2022/07/20 07:38:47;;;;;;;;;26.00;19.33;;;;;;;;5017149;28;46519;-74
2022/07/20 07:41:12;;;;;;;;;23.67;20.00;;;;;;;;5017644;28;45382;-72
2022/07/20 07:43:37;;;;;;;;;25.33;19.00;;;;;;;;5017743;28;45366;-73
2022/07/20 07:46:03;;;;;;;;;25.00;21.67;;;;;;;;5017385;28;45273;-72
2022/07/20 07:48:28;;;;;;;;;31.33;25.00;;;;;;;;5017620;28;46376;-72
2022/07/20 07:50:53;;;;;;;;;25.00;23.33;;;;;;;;5017276;28;45398;-70
2022/07/20 07:53:19;;;;;;;;;22.00;19.00;;;;;;;;5017637;28;45302;-74
2022/07/20 07:55:44;;;;;;;;;23.67;21.00;;;;;;;;5017277;28;45499;-77
2022/07/20 07:58:12;;;;;;;;;25.33;21.00;;;;;;;;5017226;28;45649;-78
2022/07/20 08:00:37;;;;;;;;;28.33;25.33;;;;;;;;5017383;28;45398;-77
2022/07/20 08:03:03;;;;;;;;;26.67;25.00;;;;;;;;5017030;28;45295;-78
2022/07/20 08:05:28;;;;;;;;;23.00;20.67;;;;;;;;5017373;28;45373;-70
2022/07/20 08:07:53;;;;;;;;;29.33;23.00;;;;;;;;5015316;28;45528;-72
2022/07/20 08:10:19;;;;;;;;;39.00;31.67;;;;;;;;5021012;28;45362;-72
2022/07/20 08:12:44;;;;;;;;;29.33;23.33;;;;;;;;5022486;28;45511;-72
2022/07/20 08:15:10;;;;;;;;;29.00;23.67;;;;;;;;5017105;28;45303;-71
2022/07/20 08:17:35;;;;;;;;;24.67;21.00;;;;;;;;5018512;28;45532;-72
2022/07/20 08:20:00;;;;;;;;;19.67;19.67;;;;;;;;5020661;28;45329;-71
2022/07/20 08:22:26;;;;;;;;;22.33;20.67;;;;;;;;5020422;28;45195;-71
2022/07/20 08:24:51;;;;;;;;;22.33;22.00;;;;;;;;5020647;28;45426;-72
2022/07/20 08:27:16;;;;;;;;;25.00;23.67;;;;;;;;5020353;28;46068;-71
2022/07/20 08:29:41;;;;;;;;;23.00;21.33;;;;;;;;5020532;28;45268;-72
2022/07/20 08:32:07;;;;;;;;;26.00;23.00;;;;;;;;5020306;28;45252;-72
2022/07/20 08:34:32;;;;;;;;;27.67;23.00;;;;;;;;5020717;28;45302;-72
2022/07/20 08:36:57;;;;;;;;;26.67;23.00;;;;;;;;5020950;28;47091;-71
2022/07/20 08:39:23;;;;;;;;;25.33;24.67;;;;;;;;5020261;28;45311;-71
2022/07/20 08:41:48;;;;;;;;;25.00;20.33;;;;;;;;5019961;28;45349;-72
2022/07/20 08:44:13;;;;;;;;;25.00;23.33;;;;;;;;5020490;28;45377;-70
2022/07/20 08:46:41;;;;;;;;;25.00;21.67;;;;;;;;5020383;28;45402;-71
2022/07/20 08:49:07;;;;;;;;;21.67;18.33;;;;;;;;5020331;28;45437;-73
2022/07/20 08:51:32;;;;;;;;;20.67;19.00;;;;;;;;5019811;28;45224;-71
2022/07/20 08:53:58;;;;;;;;;22.67;21.33;;;;;;;;5020514;28;45706;-73
2022/07/20 08:56:23;;;;;;;;;22.67;19.67;;;;;;;;5018982;28;46424;-74
2022/07/20 08:58:49;;;;;;;;;25.33;21.67;;;;;;;;5020084;28;45353;-73
2022/07/20 09:01:15;;;;;;;;;27.00;24.00;;;;;;;;5019716;28;45404;-71
2022/07/20 09:03:41;;;;;;;;;30.00;23.67;;;;;;;;5019853;28;45393;-71
2022/07/20 09:06:06;;;;;;;;;25.67;22.67;;;;;;;;5018698;28;47025;-71
2022/07/20 09:08:32;;;;;;;;;30.00;26.33;;;;;;;;5019463;28;45536;-71
2022/07/20 09:10:59;;;;;;;;;25.67;22.67;;;;;;;;5019186;28;45411;-72
2022/07/20 09:13:27;;;;;;;;;28.33;27.67;;;;;;;;5019806;28;45349;-73
2022/07/20 09:15:53;;;;;;;;;36.67;31.00;;;;;;;;5019632;28;46085;-70
2022/07/20 09:18:20;;;;;;;;;28.00;24.67;;;;;;;;5019523;28;45298;-72
2022/07/20 09:20:48;;;;;;;;;31.33;26.00;;;;;;;;5019687;28;45449;-72
2022/07/20 09:23:17;;;;;;;;;28.00;23.67;;;;;;;;5019413;28;45270;-72
2022/07/20 09:26:08;;;;;;;;;37.00;32.00;;;;;;;;5019142;28;46225;-73
2022/07/20 09:28:35;;;;;;;;;34.00;27.33;;;;;;;;5014802;28;45358;-73
2022/07/20 09:31:01;;;;;;;;;32.00;27.67;;;;;;;;5017385;28;45468;-70
2022/07/20 09:33:28;;;;;;;;;29.33;24.67;;;;;;;;5018356;28;45880;-70
2022/07/20 09:35:53;;;;;;;;;30.67;26.33;;;;;;;;5015192;28;46415;-73
2022/07/20 09:38:19;;;;;;;;;38.33;32.00;;;;;;;;5018078;28;45313;-72
2022/07/20 09:40:45;;;;;;;;;30.33;27.67;;;;;;;;5018358;28;45445;-71
2022/07/20 09:43:29;;;;;;;;;29.00;25.67;;;;;;;;5018489;28;46563;-72
2022/07/20 09:45:55;;;;;;;;;25.33;21.67;;;;;;;;5018201;28;45965;-70
2022/07/20 09:48:23;;;;;;;;;34.33;26.33;;;;;;;;5018154;28;45555;-70
2022/07/20 09:50:49;;;;;;;;;33.67;28.00;;;;;;;;5018385;28;45654;-69
2022/07/20 09:53:14;;;;;;;;;33.33;26.00;;;;;;;;5018367;28;45469;-69
2022/07/20 09:55:40;;;;;;;;;31.00;27.33;;;;;;;;5018044;28;46682;-69
2022/07/20 09:58:06;;;;;;;;;31.00;28.67;;;;;;;;5018400;28;45410;-69
2022/07/20 10:00:32;;;;;;;;;26.00;24.67;;;;;;;;5018731;28;45453;-69
2022/07/20 10:02:58;;;;;;;;;43.33;29.00;;;;;;;;5018455;28;45206;-70
2022/07/20 10:05:27;;;;;;;;;25.00;23.33;;;;;;;;5017765;28;45453;-69
2022/07/20 10:07:52;;;;;;;;;33.00;30.67;;;;;;;;5018026;28;45449;-70
2022/07/20 10:10:18;;;;;;;;;33.33;29.33;;;;;;;;5018483;28;45644;-70
2022/07/20 10:12:43;;;;;;;;;31.00;28.33;;;;;;;;5017156;28;45493;-71
2022/07/20 10:15:12;;;;;;;;;26.67;26.67;;;;;;;;5017429;28;45475;-71
2022/07/20 10:17:38;;;;;;;;;28.33;25.00;;;;;;;;5016079;28;45489;-71
2022/07/20 10:20:06;;;;;;;;;26.67;26.33;;;;;;;;5015341;28;45713;-71
2022/07/20 10:22:31;;;;;;;;;34.00;27.00;;;;;;;;5014630;28;45366;-80
2022/07/20 10:25:17;;;;;;;;;29.67;26.33;;;;;;;;5017479;28;45491;-68
2022/07/20 10:27:43;;;;;;;;;24.00;23.67;;;;;;;;5014453;28;45456;-76
2022/07/20 10:30:15;;;;;;;;;29.00;27.00;;;;;;;;5014135;28;45313;-73
2022/07/20 10:32:50;;;;;;;;;21.67;21.33;;;;;;;;5016440;28;45971;-74
2022/07/20 10:35:25;;;;;;;;;25.67;24.33;;;;;;;;5014387;28;45498;-76
2022/07/20 10:37:51;;;;;;;;;11.67;10.33;;;;;;;;5016984;28;45432;-73
2022/07/20 10:40:21;;;;;;;;;24.00;22.33;;;;;;;;5016753;28;45319;-74
2022/07/20 10:42:46;;;;;;;;;28.00;26.33;;;;;;;;5017058;28;45425;-72
2022/07/20 10:45:22;;;;;;;;;43.00;36.25;;;;;;;;5017098;28;47112;-73
2022/07/20 10:47:55;;;;;;;;;30.33;28.67;;;;;;;;5017261;28;45424;-73
2022/07/20 10:50:20;;;;;;;;;27.67;24.00;;;;;;;;5017529;28;45329;-73
2022/07/20 10:52:46;;;;;;;;;36.33;29.67;;;;;;;;5017731;28;45349;-72
2022/07/20 10:55:30;;;;;;;;;28.33;28.00;;;;;;;;5017269;28;47361;-72
2022/07/20 10:57:56;;;;;;;;;28.67;28.00;;;;;;;;5016819;28;45720;-72
2022/07/20 11:00:28;;;;;;;;;36.33;29.67;;;;;;;;5017286;28;45412;-72
2022/07/20 11:02:53;;;;;;;;;35.67;29.67;;;;;;;;5017447;28;45356;-73
2022/07/20 11:05:20;;;;;;;;;26.00;24.67;;;;;;;;5017064;28;45587;-74
2022/07/20 11:07:45;;;;;;;;;36.67;32.33;;;;;;;;5016724;28;45339;-72
2022/07/20 11:10:23;;;;;;;;;34.33;30.33;;;;;;;;5016377;28;45421;-75
2022/07/20 11:12:55;;;;;;;;;35.67;31.67;;;;;;;;5017459;28;45610;-74
2022/07/20 11:15:20;;;;;;;;;31.67;29.67;;;;;;;;5017085;28;46508;-76
2022/07/20 11:17:46;;;;;;;;;36.67;32.00;;;;;;;;5015648;28;45480;-78
2022/07/20 11:20:15;;;;;;;;;38.00;32.00;;;;;;;;5017090;28;45294;-71
2022/07/20 11:22:40;;;;;;;;;39.50;33.25;;;;;;;;5016709;28;45441;-80
2022/07/20 11:25:06;;;;;;;;;40.67;32.00;;;;;;;;5016391;28;45607;-71
2022/07/20 11:27:31;;;;;;;;;41.50;33.00;;;;;;;;5016639;28;45436;-69
2022/07/20 11:29:56;;;;;;;;;36.33;32.00;;;;;;;;5016924;28;45374;-70
2022/07/20 11:32:21;;;;;;;;;36.50;32.50;;;;;;;;5016451;28;45758;-72
2022/07/20 11:34:51;;;;;;;;;43.50;34.50;;;;;;;;5015849;28;45598;-70
2022/07/20 11:37:17;;;;;;;;;42.67;34.00;;;;;;;;5016024;28;45463;-71
2022/07/20 11:39:43;;;;;;;;;37.25;33.00;;;;;;;;5016262;28;45441;-71
2022/07/20 11:42:13;;;;;;;;;40.67;34.00;;;;;;;;5016130;28;45705;-72
2022/07/20 11:44:38;;;;;;;;;41.75;35.25;;;;;;;;5026748;28;47368;-72
2022/07/20 11:47:04;;;;;;;;;37.00;33.00;;;;;;;;5015457;28;45425;-72
2022/07/20 11:49:30;;;;;;;;;43.00;35.75;;;;;;;;5016996;28;45402;-73
2022/07/20 11:51:56;;;;;;;;;40.75;35.00;;;;;;;;5016077;28;45667;-73
2022/07/20 11:54:23;;;;;;;;;37.50;33.50;;;;;;;;5016534;28;45601;-73
2022/07/20 11:56:49;;;;;;;;;38.50;35.25;;;;;;;;5016320;28;45448;-72
2022/07/20 11:59:14;;;;;;;;;34.25;32.00;;;;;;;;5016578;28;45357;-73
2022/07/20 12:01:39;;;;;;;;;41.25;34.50;;;;;;;;5016594;28;45286;-73
2022/07/20 12:04:07;;;;;;;;;39.33;33.33;;;;;;;;5016255;28;46153;-73
2022/07/20 12:06:34;;;;;;;;;38.33;33.00;;;;;;;;5016265;28;45374;-75
2022/07/20 12:09:05;;;;;;;;;34.67;32.67;;;;;;;;5016395;28;45503;-73
2022/07/20 12:11:31;;;;;;;;;35.33;32.33;;;;;;;;5015582;28;45913;-72
2022/07/20 12:13:57;;;;;;;;;41.33;32.67;;;;;;;;5016144;28;45373;-74
2022/07/20 12:16:23;;;;;;;;;43.75;35.00;;;;;;;;4998875;28;45489;-75
2022/07/20 12:18:51;;;;;;;;;36.00;32.50;;;;;;;;5016450;28;45467;-73
2022/07/20 12:21:18;;;;;;;;;42.25;34.75;;;;;;;;5016722;28;45459;-76
2022/07/20 12:23:44;;;;;;;;;34.33;31.00;;;;;;;;5015960;28;47290;-76
2022/07/20 12:26:24;;;;;;;;;40.33;33.00;;;;;;;;5015926;28;45239;-68
2022/07/20 12:28:49;;;;;;;;;35.75;31.00;;;;;;;;5016437;28;45391;-71
2022/07/20 12:31:16;;;;;;;;;36.67;32.67;;;;;;;;5016345;28;45433;-71
2022/07/20 12:34:01;;;;;;;;;32.00;29.00;;;;;;;;5015978;28;45547;-71
2022/07/20 12:36:43;;;;;;;;;41.33;33.33;;;;;;;;5016090;28;45472;-72
2022/07/20 12:39:12;;;;;;;;;43.75;34.00;;;;;;;;5016233;28;45299;-72
2022/07/20 12:41:37;;;;;;;;;37.25;32.25;;;;;;;;5016221;28;45340;-72
2022/07/20 12:44:22;;;;;;;;;42.00;34.50;;;;;;;;5015662;28;46508;-72
2022/07/20 12:46:47;;;;;;;;;40.00;34.00;;;;;;;;5015891;28;45516;-73
2022/07/20 12:49:39;;;;;;;;;45.50;38.25;;;;;;;;5033994;28;45452;-73
2022/07/20 12:52:04;;;;;;;;;40.00;33.75;;;;;;;;5033212;28;45380;-73
2022/07/20 12:54:30;;;;;;;;;39.50;34.75;;;;;;;;5035828;28;46088;-72
2022/07/20 12:56:55;;;;;;;;;38.50;33.50;;;;;;;;5036106;28;46208;-72
2022/07/20 12:59:20;;;;;;;;;43.50;34.75;;;;;;;;5035982;28;45436;-72
2022/07/20 13:01:48;;;;;;;;;36.00;31.67;;;;;;;;5036193;28;45509;-71
2022/07/20 13:04:15;;;;;;;;;41.25;34.75;;;;;;;;5036953;28;46081;-73
2022/07/20 13:06:40;;;;;;;;;35.75;33.25;;;;;;;;5038996;28;45417;-72
2022/07/20 13:09:05;;;;;;;;;40.25;35.50;;;;;;;;5039489;28;45480;-72
2022/07/20 13:11:31;;;;;;;;;37.75;32.75;;;;;;;;5039349;28;45480;-72
2022/07/20 13:13:56;;;;;;;;;34.00;32.00;;;;;;;;5039085;28;46699;-73
2022/07/20 13:16:21;;;;;;;;;41.00;33.75;;;;;;;;5039393;28;45313;-72
2022/07/20 13:18:47;;;;;;;;;45.50;35.75;;;;;;;;5039079;28;45239;-74
2022/07/20 13:21:12;;;;;;;;;42.25;34.25;;;;;;;;5039625;28;45500;-72
2022/07/20 13:23:38;;;;;;;;;43.50;36.25;;;;;;;;5038940;28;45479;-72
2022/07/20 13:26:03;;;;;;;;;47.00;39.00;;;;;;;;5038908;28;45377;-72
2022/07/20 13:28:28;;;;;;;;;37.50;31.75;;;;;;;;5039394;28;45492;-72
2022/07/20 13:30:54;;;;;;;;;42.67;34.67;;;;;;;;5039227;28;45378;-72
2022/07/20 13:33:19;;;;;;;;;43.50;34.50;;;;;;;;5038653;28;46354;-72
2022/07/20 13:35:44;;;;;;;;;42.50;35.25;;;;;;;;5038768;28;45500;-73
2022/07/20 13:38:10;;;;;;;;;42.00;34.00;;;;;;;;5038966;28;45445;-72
2022/07/20 13:40:35;;;;;;;;;43.50;36.00;;;;;;;;5039286;28;45427;-73
2022/07/20 13:43:00;;;;;;;;;48.00;39.25;;;;;;;;5038471;28;46186;-72
2022/07/20 13:45:26;;;;;;;;;41.25;33.25;;;;;;;;5038821;28;45483;-73
2022/07/20 13:47:51;;;;;;;;;45.50;36.25;;;;;;;;5020900;28;45413;-73
2022/07/20 13:50:17;;;;;;;;;46.25;38.50;;;;;;;;5039000;28;45429;-72
2022/07/20 13:52:42;;;;;;;;;47.25;37.25;;;;;;;;5038534;28;45563;-72
2022/07/20 13:55:08;;;;;;;;;39.00;34.75;;;;;;;;5038519;28;45329;-72
2022/07/20 13:57:33;;;;;;;;;39.25;34.00;;;;;;;;5038747;28;45451;-72
2022/07/20 13:59:58;;;;;;;;;44.00;36.25;;;;;;;;5038563;28;45383;-72
2022/07/20 14:02:24;;;;;;;;;40.00;34.75;;;;;;;;5038181;28;46414;-73
2022/07/20 14:04:49;;;;;;;;;35.50;33.25;;;;;;;;5038552;28;45378;-72
2022/07/20 14:07:14;;;;;;;;;41.67;35.33;;;;;;;;5038575;28;45373;-72
2022/07/20 14:09:40;;;;;;;;;46.33;35.67;;;;;;;;5038770;28;45374;-72
2022/07/20 14:12:05;;;;;;;;;42.25;35.50;;;;;;;;5022367;28;46611;-72
2022/07/20 14:14:30;;;;;;;;;48.67;39.33;;;;;;;;5018219;28;45322;-72